createdAt,value
2023-01-31T08:43:23.933Z,88862.00
2023-01-31T08:44:23.892Z,88862.00
2023-01-31T08:45:23.866Z,88862.00
2023-01-31T08:46:23.868Z,88858.00
2023-01-31T08:47:23.909Z,88858.00
2023-01-31T08:49:30.287Z,88852.00
2023-01-31T09:55:24.060Z,88856.00
2023-01-31T12:31:15.456Z,88678.00
2023-01-31T12:32:15.290Z,88670.00
2023-01-31T12:33:15.287Z,88670.00
2023-01-31T12:34:15.311Z,88670.00
2023-01-31T12:35:15.221Z,88672.00
2023-01-31T12:36:15.195Z,88666.00
2023-01-31T12:37:15.156Z,88666.00
2023-01-31T12:38:15.107Z,88670.00
2023-01-31T12:39:15.070Z,88668.00
2023-01-31T12:40:24.697Z,88666.00
2023-01-31T12:41:16.253Z,88666.00
2023-01-31T12:42:14.969Z,88664.00
2023-01-31T12:43:14.920Z,88666.00
2023-01-31T12:44:14.946Z,88666.00
2023-01-31T12:45:14.928Z,88670.00
2023-01-31T12:46:14.977Z,88668.00
2023-01-31T12:47:14.812Z,88670.00
2023-01-31T12:48:14.770Z,88672.00
2023-01-31T12:49:14.698Z,88668.00
2023-01-31T12:50:14.743Z,88672.00
2023-01-31T12:51:14.637Z,88664.00
2023-01-31T12:52:14.586Z,88661.00
2023-01-31T12:53:14.582Z,88664.00
2023-01-31T12:54:14.496Z,88663.00
2023-01-31T12:55:14.497Z,88670.00
2023-01-31T12:56:14.443Z,88672.00
2023-01-31T12:57:14.458Z,88672.00
2023-01-31T12:58:14.356Z,88664.00
2023-01-31T12:59:16.643Z,88663.00
2023-01-31T13:00:14.468Z,88666.00
2023-01-31T13:01:14.504Z,88668.00
2023-01-31T13:02:14.391Z,88666.00
2023-01-31T13:03:14.351Z,88661.00
2023-01-31T13:04:14.377Z,88663.00
2023-01-31T13:05:14.297Z,88661.00
2023-01-31T13:06:14.260Z,88659.00
2023-01-31T13:07:14.204Z,88664.00
2023-01-31T13:08:15.542Z,88663.00
2023-01-31T13:09:14.325Z,88659.00
2023-01-31T13:10:14.094Z,88657.00
2023-01-31T13:11:14.152Z,88655.00
2023-01-31T13:12:14.018Z,88647.00
2023-01-31T13:13:13.933Z,88649.00
2023-01-31T13:14:13.901Z,88653.00
2023-01-31T13:15:14.517Z,88657.00
2023-01-31T13:16:13.851Z,88659.00
2023-01-31T13:17:13.784Z,88661.00
2023-01-31T13:29:14.110Z,88664.00
2023-01-31T13:34:15.621Z,88664.00
2023-01-31T17:14:04.330Z,88664.00
2023-01-31T17:15:04.423Z,88664.00
2023-01-31T17:16:04.236Z,88666.00
2023-01-31T17:17:04.672Z,88668.00
2023-01-31T17:18:04.117Z,88674.00
2023-01-31T17:19:04.071Z,88674.00
2023-01-31T17:20:04.089Z,88674.00
2023-01-31T17:21:03.979Z,88676.00
2023-01-31T17:22:03.951Z,88678.00
2023-01-31T17:23:03.893Z,88684.00
2023-01-31T17:24:03.874Z,88690.00
2023-01-31T17:25:03.896Z,88696.00
2023-01-31T17:26:03.794Z,88698.00
2023-01-31T17:27:03.782Z,88698.00
2023-01-31T20:25:57.312Z,88756.00
2023-01-31T20:26:59.006Z,88749.00
2023-01-31T20:27:57.246Z,88762.00
2023-01-31T20:28:57.209Z,88762.00
2023-01-31T20:29:57.158Z,88760.00
2023-01-31T20:30:57.170Z,88749.00
2023-01-31T20:31:57.163Z,88758.00
2023-01-31T20:32:57.050Z,88760.00
2023-01-31T20:33:57.036Z,88764.00
2023-01-31T20:34:56.984Z,88764.00
2023-01-31T20:35:56.952Z,88762.00
2023-01-31T20:36:56.887Z,88758.00
2023-01-31T20:37:56.856Z,88758.00
2023-01-31T20:38:56.847Z,88756.00
2023-01-31T20:39:56.794Z,88756.00
2023-01-31T20:40:56.818Z,88758.00
2023-01-31T20:41:56.749Z,88747.00
2023-01-31T20:42:56.726Z,88749.00
2023-01-31T20:43:56.651Z,88747.00
2023-01-31T20:44:56.677Z,88745.00
2023-01-31T20:45:56.701Z,88745.00
2023-01-31T20:46:57.254Z,88741.00
2023-01-31T20:47:56.777Z,88737.00
2023-01-31T20:48:56.486Z,88739.00
2023-01-31T20:49:56.595Z,88737.00
2023-01-31T20:50:57.284Z,88739.00
2023-01-31T20:51:56.404Z,88737.00
2023-01-31T20:52:56.389Z,88737.00
2023-01-31T20:53:56.369Z,88741.00
2023-01-31T20:54:56.255Z,88741.00
2023-01-31T20:55:56.230Z,88743.00
2023-01-31T20:56:56.187Z,88741.00
2023-01-31T20:57:56.197Z,88739.00
2023-01-31T20:58:56.114Z,88735.00
2023-01-31T20:59:56.083Z,88733.00
2023-01-31T21:00:56.119Z,88735.00
2023-01-31T21:01:56.020Z,88733.00
2023-01-31T21:02:56.046Z,88735.00
2023-01-31T21:03:55.981Z,88733.00
2023-01-31T21:04:55.972Z,88731.00
2023-01-31T21:05:55.895Z,88725.00
2023-01-31T21:06:55.854Z,88729.00
2023-01-31T21:07:55.866Z,88731.00
2023-01-31T21:08:55.793Z,88731.00
2023-01-31T21:09:55.783Z,88733.00
2023-01-31T21:10:55.704Z,88729.00
2023-01-31T21:11:55.679Z,88729.00
2023-01-31T21:12:55.667Z,88729.00
2023-01-31T21:13:55.617Z,88727.00
2023-01-31T21:14:55.591Z,88727.00
2023-01-31T21:15:55.625Z,88725.00
2023-01-31T21:16:55.509Z,88723.00
2023-01-31T21:17:55.500Z,88723.00
2023-01-31T21:18:55.491Z,88723.00
2023-01-31T21:19:55.414Z,88721.00
2023-01-31T21:20:55.348Z,88723.00
2023-01-31T21:21:55.317Z,88725.00
2023-01-31T21:22:55.322Z,88727.00
2023-01-31T21:23:55.302Z,88727.00
2023-01-31T21:24:55.212Z,88725.00
2023-01-31T21:25:55.158Z,88727.00
2023-01-31T21:26:55.162Z,88729.00
2023-01-31T21:27:55.086Z,88729.00
2023-01-31T21:28:55.060Z,88725.00
2023-01-31T21:29:55.821Z,88727.00
2023-01-31T21:30:55.020Z,88725.00
2023-01-31T21:31:55.124Z,88731.00
2023-01-31T21:32:54.922Z,88731.00
2023-01-31T21:33:54.923Z,88729.00
2023-01-31T21:34:54.866Z,88731.00
2023-01-31T21:35:55.722Z,88731.00
2023-01-31T21:36:54.784Z,88729.00
2023-01-31T21:37:54.742Z,88725.00
2023-01-31T21:38:54.731Z,88725.00
2023-01-31T21:39:54.687Z,88733.00
2023-01-31T21:40:54.639Z,88733.00
2023-01-31T21:41:54.605Z,88737.00
2023-01-31T21:42:54.591Z,88739.00
2023-01-31T21:43:54.551Z,88741.00
2023-01-31T21:44:54.524Z,88739.00
2023-01-31T21:45:54.559Z,88741.00
2023-01-31T21:46:54.456Z,88739.00
2023-01-31T21:47:54.417Z,88739.00
2023-01-31T21:48:54.382Z,88741.00
2023-01-31T21:49:54.353Z,88743.00
2023-01-31T21:50:54.321Z,88741.00
2023-01-31T21:51:54.345Z,88737.00
2023-01-31T21:52:54.273Z,88735.00
2023-01-31T21:53:54.232Z,88737.00
2023-01-31T21:54:54.237Z,88733.00
2023-01-31T21:55:54.137Z,88733.00
2023-01-31T21:56:54.125Z,88731.00
2023-01-31T21:57:54.079Z,88733.00
2023-01-31T21:58:54.038Z,88731.00
2023-01-31T21:59:54.004Z,88729.00
2023-01-31T22:00:53.970Z,88733.00
2023-01-31T22:01:53.981Z,88729.00
2023-01-31T22:02:53.942Z,88729.00
2023-01-31T22:03:53.858Z,88729.00
2023-01-31T22:04:53.827Z,88729.00
2023-01-31T22:05:53.795Z,88729.00
